UAL850 KDEN-EFHK
Flight info
| Callsign | UAL850 |
|---|---|
| Flight time | N/A |
| Altitude | 31000 |
| Route | YELLO5 RAP DCT SEMGE DCT YIL/N0480F330 DCT 60N087W DCT 6480N DCT 68N068W/M082F350 71N054W 73N036W 72N012W/M082F370 70N000E/N0484F370 DCT IDLAG DCT NEBUR DCT IRGAL DCT UXADA Y349 AMROT Y362 LAKUT |
| Aircraft | B763/H-SDE3FGHIM3RWXY/LB1 |
Departure
| Time | 2026-05-06 04:44 |
|---|---|
| Airport | Denver International Airport (KDEN) |
Arrival
| Time | N/A |
|---|---|
| Airport | Helsinki Vantaa Airport (EFHK) |
| Time | Latitude | Longitude | Altitude | Speed | Heading |
|---|---|---|---|---|---|
| 2026-05-06 04:06 | 39.85801 | -104.67283 | 5386 ft | 0 kts | 359° |
| 2026-05-06 04:19 | 39.85800 | -104.67283 | 5386 ft | 1 kts | 360° |
| 2026-05-06 04:19 | 39.85785 | -104.67283 | 5386 ft | 2 kts | 359° |
| 2026-05-06 04:20 | 39.85769 | -104.67283 | 5386 ft | 2 kts | 359° |
| 2026-05-06 04:20 | 39.85753 | -104.67283 | 5386 ft | 2 kts | 359° |
| 2026-05-06 04:20 | 39.85738 | -104.67283 | 5386 ft | 2 kts | 359° |
| 2026-05-06 04:20 | 39.85723 | -104.67283 | 5386 ft | 2 kts | 359° |
| 2026-05-06 04:21 | 39.85708 | -104.67283 | 5385 ft | 1 kts | 359° |
| 2026-05-06 04:21 | 39.85707 | -104.67283 | 5385 ft | 0 kts | 359° |
| 2026-05-06 04:23 | 39.85709 | -104.67283 | 5385 ft | 1 kts | 358° |
| 2026-05-06 04:23 | 39.85725 | -104.67288 | 5385 ft | 2 kts | 325° |
| 2026-05-06 04:24 | 39.85729 | -104.67319 | 5385 ft | 5 kts | 266° |
| 2026-05-06 04:24 | 39.85714 | -104.67384 | 5385 ft | 9 kts | 251° |
| 2026-05-06 04:24 | 39.85689 | -104.67482 | 5385 ft | 12 kts | 252° |
| 2026-05-06 04:24 | 39.85668 | -104.67612 | 5385 ft | 15 kts | 266° |
| 2026-05-06 04:25 | 39.85667 | -104.67774 | 5385 ft | 16 kts | 270° |
| 2026-05-06 04:25 | 39.85668 | -104.67950 | 5385 ft | 17 kts | 270° |
| 2026-05-06 04:25 | 39.85670 | -104.68116 | 5385 ft | 14 kts | 276° |
| 2026-05-06 04:25 | 39.85722 | -104.68205 | 5383 ft | 9 kts | 335° |
| 2026-05-06 04:26 | 39.85761 | -104.68259 | 5381 ft | 8 kts | 291° |
| 2026-05-06 04:26 | 39.85765 | -104.68300 | 5380 ft | 0 kts | 273° |
| 2026-05-06 04:37 | 39.85764 | -104.68328 | 5379 ft | 5 kts | 263° |
| 2026-05-06 04:37 | 39.85745 | -104.68376 | 5379 ft | 5 kts | 221° |
| 2026-05-06 04:37 | 39.85713 | -104.68394 | 5379 ft | 4 kts | 196° |
| 2026-05-06 04:38 | 39.85689 | -104.68430 | 5379 ft | 5 kts | 254° |
| 2026-05-06 04:38 | 39.85678 | -104.68476 | 5379 ft | 4 kts | 240° |
| 2026-05-06 04:38 | 39.85654 | -104.68503 | 5379 ft | 3 kts | 200° |
| 2026-05-06 04:38 | 39.85620 | -104.68510 | 5379 ft | 6 kts | 187° |
| 2026-05-06 04:39 | 39.85563 | -104.68514 | 5379 ft | 7 kts | 181° |
| 2026-05-06 04:39 | 39.85512 | -104.68514 | 5379 ft | 6 kts | 180° |
| 2026-05-06 04:39 | 39.85454 | -104.68516 | 5379 ft | 10 kts | 181° |
| 2026-05-06 04:39 | 39.85361 | -104.68516 | 5379 ft | 11 kts | 179° |
| 2026-05-06 04:40 | 39.85273 | -104.68515 | 5379 ft | 10 kts | 182° |
| 2026-05-06 04:40 | 39.85218 | -104.68549 | 5379 ft | 7 kts | 231° |
| 2026-05-06 04:40 | 39.85203 | -104.68640 | 5375 ft | 11 kts | 267° |
| 2026-05-06 04:40 | 39.85201 | -104.68768 | 5368 ft | 15 kts | 270° |
| 2026-05-06 04:41 | 39.85197 | -104.68947 | 5359 ft | 16 kts | 268° |
| 2026-05-06 04:41 | 39.85196 | -104.69079 | 5357 ft | 12 kts | 270° |
| 2026-05-06 04:41 | 39.85197 | -104.69228 | 5345 ft | 17 kts | 271° |
| 2026-05-06 04:41 | 39.85200 | -104.69388 | 5342 ft | 13 kts | 269° |
| 2026-05-06 04:42 | 39.85200 | -104.69502 | 5342 ft | 11 kts | 269° |
| 2026-05-06 04:42 | 39.85200 | -104.69598 | 5342 ft | 8 kts | 270° |
| 2026-05-06 04:42 | 39.85214 | -104.69649 | 5342 ft | 3 kts | 334° |
| 2026-05-06 04:42 | 39.85237 | -104.69656 | 5342 ft | 2 kts | 357° |
| 2026-05-06 04:43 | 39.85240 | -104.69656 | 5342 ft | 0 kts | 358° |
| 2026-05-06 04:43 | 39.85242 | -104.69656 | 5342 ft | 1 kts | 358° |
| 2026-05-06 04:43 | 39.85446 | -104.69656 | 5340 ft | 64 kts | 0° |
| 2026-05-06 04:44 | 39.86279 | -104.69646 | 5336 ft | 144 kts | 0° |
| 2026-05-06 04:44 | 39.87598 | -104.69630 | 5510 ft | 193 kts | 0° |
| 2026-05-06 04:44 | 39.88903 | -104.69598 | 6374 ft | 191 kts | 360° |
| 2026-05-06 04:44 | 39.90277 | -104.69571 | 6804 ft | 204 kts | 0° |
| 2026-05-06 04:45 | 39.91768 | -104.69541 | 6959 ft | 225 kts | 0° |
| 2026-05-06 04:45 | 39.93414 | -104.69507 | 7127 ft | 246 kts | 0° |
| 2026-05-06 04:45 | 39.95146 | -104.69470 | 7574 ft | 255 kts | 0° |
| 2026-05-06 04:45 | 39.96961 | -104.69432 | 8021 ft | 269 kts | 1° |
| 2026-05-06 04:46 | 39.98400 | -104.69402 | 8420 ft | 276 kts | 1° |
| 2026-05-06 04:46 | 39.99831 | -104.69370 | 8948 ft | 278 kts | 1° |
| 2026-05-06 04:46 | 40.01751 | -104.69329 | 9648 ft | 280 kts | 1° |
| 2026-05-06 04:46 | 40.03806 | -104.69264 | 9958 ft | 286 kts | 6° |
| 2026-05-06 04:47 | 40.05856 | -104.68985 | 10104 ft | 305 kts | 7° |
| 2026-05-06 04:47 | 40.07464 | -104.68722 | 10241 ft | 321 kts | 8° |
| 2026-05-06 04:47 | 40.09739 | -104.68352 | 10461 ft | 342 kts | 7° |
| 2026-05-06 04:47 | 40.12152 | -104.67965 | 10821 ft | 359 kts | 7° |
| 2026-05-06 04:48 | 40.14682 | -104.67557 | 11200 ft | 375 kts | 8° |
| 2026-05-06 04:48 | 40.17270 | -104.66748 | 11789 ft | 385 kts | 17° |
| 2026-05-06 04:48 | 40.19792 | -104.65597 | 12669 ft | 388 kts | 18° |
| 2026-05-06 04:48 | 40.22355 | -104.64400 | 13469 ft | 392 kts | 17° |
| 2026-05-06 04:49 | 40.24966 | -104.63180 | 14084 ft | 402 kts | 17° |
| 2026-05-06 04:49 | 40.27620 | -104.61940 | 14792 ft | 409 kts | 17° |
| 2026-05-06 04:49 | 40.30302 | -104.60685 | 15559 ft | 413 kts | 16° |
| 2026-05-06 04:49 | 40.33044 | -104.59412 | 16360 ft | 416 kts | 15° |
| 2026-05-06 04:50 | 40.35781 | -104.58143 | 17147 ft | 419 kts | 15° |
| 2026-05-06 04:50 | 40.38511 | -104.56877 | 17856 ft | 424 kts | 15° |
| 2026-05-06 04:50 | 40.41363 | -104.55553 | 18447 ft | 431 kts | 14° |
| 2026-05-06 04:50 | 40.44188 | -104.54241 | 19100 ft | 437 kts | 14° |
| 2026-05-06 04:51 | 40.47081 | -104.52895 | 19749 ft | 443 kts | 14° |
| 2026-05-06 04:51 | 40.49998 | -104.51537 | 20399 ft | 448 kts | 14° |
| 2026-05-06 04:51 | 40.52959 | -104.50156 | 21031 ft | 453 kts | 14° |
| 2026-05-06 04:51 | 40.55932 | -104.48769 | 21605 ft | 459 kts | 14° |
| 2026-05-06 04:52 | 40.57676 | -104.47955 | 21989 ft | 461 kts | 14° |